createdAt,value
2023-05-06T00:01:43.546Z,16.10
2023-05-06T00:04:10.881Z,17.30
2023-05-06T00:06:38.865Z,16.73
2023-05-06T00:09:06.121Z,20.55
2023-05-06T00:11:37.113Z,23.23
2023-05-06T00:14:04.185Z,23.55
2023-05-06T00:16:31.330Z,27.77
2023-05-06T00:18:58.828Z,28.38
2023-05-06T00:21:27.085Z,29.40
2023-05-06T00:23:54.238Z,25.58
2023-05-06T00:26:21.136Z,20.98
2023-05-06T00:28:47.977Z,23.05
2023-05-06T00:31:15.981Z,26.15
2023-05-06T00:33:44.248Z,28.02
2023-05-06T00:36:14.402Z,25.60
2023-05-06T00:38:41.518Z,21.02
2023-05-06T00:41:10.643Z,28.85
2023-05-06T00:43:37.895Z,25.23
2023-05-06T00:46:07.447Z,26.70
2023-05-06T00:48:34.780Z,26.85
2023-05-06T00:51:01.977Z,24.92
2023-05-06T00:53:29.263Z,26.88
2023-05-06T00:55:57.024Z,25.98
2023-05-06T00:58:24.043Z,24.55
2023-05-06T01:00:52.683Z,28.42
2023-05-06T01:03:21.755Z,25.75
2023-05-06T01:06:22.384Z,22.75
2023-05-06T01:09:06.175Z,25.17
2023-05-06T01:11:42.352Z,28.08
2023-05-06T01:14:21.856Z,24.13
2023-05-06T01:16:54.887Z,26.77
2023-05-06T01:19:53.496Z,25.42
2023-05-06T01:22:21.637Z,23.88
2023-05-06T01:24:50.391Z,26.65
2023-05-06T01:27:18.346Z,24.85
2023-05-06T01:29:47.686Z,26.10
2023-05-06T01:32:57.915Z,25.85
2023-05-06T01:35:35.968Z,27.75
2023-05-06T01:38:47.937Z,26.17
2023-05-06T01:41:17.544Z,26.77
2023-05-06T01:43:48.096Z,23.25
2023-05-06T01:46:19.725Z,26.08
2023-05-06T01:48:50.232Z,23.90
2023-05-06T01:51:17.193Z,22.80
2023-05-06T01:53:44.582Z,22.98
2023-05-06T01:56:11.526Z,26.00
2023-05-06T01:58:39.159Z,27.88
2023-05-06T02:01:06.533Z,29.85
2023-05-06T02:03:34.021Z,26.88
2023-05-06T02:06:02.441Z,27.88
2023-05-06T02:08:29.536Z,27.88
2023-05-06T02:10:56.795Z,29.23
2023-05-06T02:13:23.839Z,27.02
2023-05-06T02:15:54.987Z,31.50
2023-05-06T02:18:22.824Z,31.33
2023-05-06T02:20:50.478Z,32.65
2023-05-06T02:23:19.061Z,28.02
2023-05-06T02:25:46.816Z,30.23
2023-05-06T02:28:17.094Z,28.20
2023-05-06T02:30:44.179Z,33.08
2023-05-06T02:33:11.073Z,29.05
2023-05-06T02:35:38.300Z,29.80
2023-05-06T02:38:05.427Z,29.55
2023-05-06T02:40:32.908Z,27.95
2023-05-06T02:42:59.889Z,28.67
2023-05-06T02:45:26.969Z,29.77
2023-05-06T02:47:53.936Z,27.48
2023-05-06T02:50:21.169Z,27.95
2023-05-06T02:52:49.043Z,31.02
2023-05-06T02:55:16.301Z,30.55
2023-05-06T02:57:43.611Z,32.13
2023-05-06T03:00:11.538Z,32.97
2023-05-06T03:02:38.752Z,34.70
2023-05-06T03:05:07.023Z,31.13
2023-05-06T03:07:37.946Z,35.65
2023-05-06T03:10:05.373Z,34.10
2023-05-06T03:12:33.224Z,38.10
2023-05-06T03:15:00.046Z,38.22
2023-05-06T03:17:27.222Z,32.40
2023-05-06T03:19:54.212Z,29.58
2023-05-06T03:22:21.123Z,30.40
2023-05-06T03:24:51.261Z,35.03
2023-05-06T03:27:18.261Z,33.10
2023-05-06T03:29:46.831Z,40.65
2023-05-06T03:32:14.601Z,39.40
2023-05-06T03:34:41.551Z,34.28
2023-05-06T03:37:09.133Z,35.55
2023-05-06T03:39:36.453Z,29.45
2023-05-06T03:42:03.504Z,33.03
2023-05-06T03:44:31.243Z,32.97
2023-05-06T03:46:58.162Z,32.03
2023-05-06T03:49:25.289Z,34.17
2023-05-06T03:51:53.611Z,30.30
2023-05-06T03:54:20.734Z,31.35
2023-05-06T03:56:48.190Z,33.08
2023-05-06T03:59:15.390Z,32.15
2023-05-06T04:01:43.389Z,35.33
2023-05-06T04:04:10.746Z,32.22
2023-05-06T04:06:37.887Z,34.38
2023-05-06T04:11:52.540Z,32.25
2023-05-06T04:14:20.462Z,31.60
2023-05-06T04:16:47.723Z,32.92
2023-05-06T04:19:14.996Z,29.42
2023-05-06T04:21:41.814Z,35.17
2023-05-06T04:24:08.942Z,37.13
2023-05-06T04:26:36.367Z,32.35
2023-05-06T04:29:03.657Z,36.53
2023-05-06T04:31:31.027Z,38.47
2023-05-06T04:33:58.171Z,35.78
2023-05-06T04:36:25.079Z,37.67
2023-05-06T04:38:53.525Z,33.47
2023-05-06T04:41:20.776Z,33.70
2023-05-06T04:43:47.919Z,34.72
2023-05-06T04:46:15.226Z,36.92
2023-05-06T04:48:42.199Z,36.47
2023-05-06T04:51:09.611Z,33.22
2023-05-06T04:53:36.519Z,34.22
2023-05-06T04:56:03.992Z,35.15
2023-05-06T04:58:30.955Z,30.02
2023-05-06T05:00:58.184Z,31.13
2023-05-06T05:03:25.419Z,32.92
2023-05-06T05:05:52.717Z,29.67
2023-05-06T05:08:19.684Z,30.63
2023-05-06T05:10:51.776Z,28.40
2023-05-06T05:13:19.724Z,28.10
2023-05-06T05:15:46.869Z,28.30
2023-05-06T05:18:13.907Z,32.22
2023-05-06T05:20:40.755Z,30.23
2023-05-06T05:23:07.803Z,30.15
2023-05-06T05:25:37.289Z,34.45
2023-05-06T05:28:04.504Z,31.52
2023-05-06T05:30:32.048Z,27.75
2023-05-06T05:33:01.073Z,27.00
2023-05-06T05:35:28.126Z,26.25
2023-05-06T05:37:56.084Z,27.77
2023-05-06T05:40:23.089Z,26.60
2023-05-06T05:42:50.054Z,31.27
2023-05-06T05:45:17.332Z,24.02
2023-05-06T05:47:44.822Z,24.67
2023-05-06T05:50:12.300Z,27.13
2023-05-06T05:52:39.199Z,23.70
2023-05-06T05:55:07.353Z,26.10
2023-05-06T05:57:34.775Z,22.83
2023-05-06T06:00:01.867Z,22.58
2023-05-06T06:02:29.174Z,21.52
2023-05-06T06:04:56.484Z,23.80
2023-05-06T06:07:24.554Z,23.88
2023-05-06T06:09:52.312Z,19.77
2023-05-06T06:12:19.430Z,22.35
2023-05-06T06:14:48.409Z,23.10
2023-05-06T06:17:17.315Z,24.23
2023-05-06T06:19:47.078Z,24.02
2023-05-06T06:22:14.556Z,23.15
2023-05-06T06:24:41.422Z,20.20
2023-05-06T06:27:08.439Z,20.75
2023-05-06T06:29:35.428Z,19.67
2023-05-06T06:32:05.896Z,21.83
2023-05-06T06:34:33.604Z,19.17
2023-05-06T06:37:00.703Z,19.42
2023-05-06T06:39:29.335Z,17.77
2023-05-06T06:41:59.415Z,18.60
2023-05-06T06:44:26.986Z,21.02
2023-05-06T06:46:53.873Z,18.15
2023-05-06T06:49:20.950Z,17.58
2023-05-06T06:51:47.949Z,18.02
2023-05-06T06:54:15.215Z,17.33
2023-05-06T06:56:42.331Z,16.10
2023-05-06T06:59:09.440Z,15.45
2023-05-06T07:01:36.595Z,16.33
2023-05-06T07:04:05.314Z,15.63
2023-05-06T07:06:33.644Z,16.80
2023-05-06T07:09:00.591Z,18.30
2023-05-06T07:11:27.703Z,16.27
2023-05-06T07:13:54.575Z,15.45
2023-05-06T07:16:22.440Z,14.80
2023-05-06T07:18:50.942Z,15.02
2023-05-06T07:21:18.091Z,16.08
2023-05-06T07:23:45.104Z,15.80
2023-05-06T07:26:12.211Z,15.27
2023-05-06T07:28:39.262Z,13.20
2023-05-06T07:31:06.567Z,16.20
2023-05-06T07:33:36.471Z,13.52
2023-05-06T07:36:03.525Z,13.57
2023-05-06T07:38:30.564Z,13.55
2023-05-06T07:40:58.004Z,14.52
2023-05-06T07:43:25.077Z,16.02
2023-05-06T07:45:51.967Z,12.80
2023-05-06T07:48:20.359Z,13.32
2023-05-06T07:50:47.712Z,14.77
2023-05-06T07:53:14.651Z,11.00
2023-05-06T07:55:41.646Z,11.68
2023-05-06T07:58:08.674Z,10.63
2023-05-06T08:00:35.748Z,10.82
2023-05-06T08:03:03.284Z,9.50
2023-05-06T08:05:30.815Z,8.35
2023-05-06T08:07:58.358Z,8.10
2023-05-06T08:10:25.752Z,8.57
2023-05-06T08:12:52.939Z,7.25
2023-05-06T08:15:20.750Z,8.52
2023-05-06T08:17:47.700Z,8.48
2023-05-06T08:20:15.310Z,7.10
2023-05-06T08:22:42.363Z,9.77
2023-05-06T08:25:10.633Z,10.57
2023-05-06T08:27:37.762Z,10.32
2023-05-06T08:30:05.782Z,10.90
2023-05-06T08:32:32.875Z,11.98
2023-05-06T08:35:01.060Z,11.48
2023-05-06T08:37:28.077Z,9.65
2023-05-06T08:39:55.156Z,10.32
2023-05-06T08:42:26.468Z,9.98
2023-05-06T08:44:55.873Z,7.93
2023-05-06T08:47:24.064Z,7.43
2023-05-06T08:49:51.040Z,8.82
2023-05-06T08:52:21.689Z,6.38
2023-05-06T08:54:54.667Z,6.40
2023-05-06T08:57:22.056Z,6.63
2023-05-06T08:59:49.504Z,6.22
2023-05-06T09:02:16.809Z,7.03
2023-05-06T09:04:45.539Z,6.00
2023-05-06T09:07:12.680Z,6.20
2023-05-06T09:09:41.076Z,6.45
2023-05-06T09:12:13.599Z,7.00
2023-05-06T09:14:41.711Z,5.85
2023-05-06T09:17:28.153Z,6.65
2023-05-06T09:19:59.849Z,7.13
2023-05-06T09:22:29.481Z,7.38
2023-05-06T09:24:58.561Z,7.05
2023-05-06T09:27:35.125Z,7.38
2023-05-06T09:30:13.756Z,7.50
2023-05-06T09:32:42.024Z,6.88
2023-05-06T09:35:11.544Z,5.97
2023-05-06T09:37:39.618Z,6.03
2023-05-06T09:40:07.828Z,6.78
2023-05-06T09:42:34.941Z,5.95
2023-05-06T09:45:02.594Z,7.10
2023-05-06T09:47:35.547Z,6.20
2023-05-06T09:50:04.406Z,5.40
2023-05-06T09:52:31.794Z,4.90
2023-05-06T09:55:01.045Z,5.30
2023-05-06T09:57:30.946Z,4.00
2023-05-06T09:59:58.400Z,4.00
2023-05-06T10:02:29.897Z,3.65
2023-05-06T10:04:58.670Z,5.07
2023-05-06T10:07:29.131Z,4.53
2023-05-06T10:09:58.890Z,3.78
2023-05-06T10:12:27.416Z,3.00
2023-05-06T10:14:54.781Z,3.05
2023-05-06T10:17:28.419Z,5.90
2023-05-06T10:19:59.220Z,6.00
2023-05-06T10:22:56.611Z,6.15
2023-05-06T10:25:40.137Z,5.40
2023-05-06T10:28:14.694Z,6.28
2023-05-06T10:30:59.208Z,5.30
2023-05-06T10:33:28.441Z,2.83
2023-05-06T10:36:14.296Z,3.92
2023-05-06T10:38:45.290Z,3.10
2023-05-06T10:41:13.860Z,3.85
2023-05-06T10:43:43.504Z,3.47
2023-05-06T10:46:18.040Z,3.38
2023-05-06T10:49:07.055Z,3.00
2023-05-06T10:51:38.584Z,4.57
2023-05-06T10:54:08.040Z,4.32
2023-05-06T10:56:40.749Z,3.85
2023-05-06T10:59:10.793Z,3.33
2023-05-06T11:02:04.711Z,4.00
2023-05-06T11:04:32.181Z,5.15
2023-05-06T11:07:22.475Z,4.63
2023-05-06T11:10:07.071Z,4.85
2023-05-06T11:12:56.111Z,4.20
2023-05-06T11:15:43.591Z,4.10
2023-05-06T11:18:29.518Z,3.75
2023-05-06T11:21:03.189Z,3.50
2023-05-06T11:23:43.267Z,3.50
2023-05-06T11:26:11.809Z,3.38
2023-05-06T11:28:40.483Z,2.90
2023-05-06T11:31:08.462Z,3.42
2023-05-06T11:33:37.548Z,3.05
2023-05-06T11:36:05.517Z,1.65
2023-05-06T11:38:51.331Z,2.53
2023-05-06T11:41:19.550Z,2.58
2023-05-06T11:43:51.635Z,2.20
2023-05-06T11:46:21.305Z,2.17
2023-05-06T11:48:48.650Z,1.17
2023-05-06T11:51:16.462Z,1.30
2023-05-06T11:53:43.852Z,1.42
2023-05-06T11:56:11.059Z,1.00
2023-05-06T11:58:38.303Z,1.00
2023-05-06T12:01:05.445Z,1.02
2023-05-06T12:03:33.688Z,1.20
2023-05-06T12:06:01.563Z,1.10
2023-05-06T12:08:38.144Z,0.80
2023-05-06T12:11:10.238Z,0.70
2023-05-06T12:13:37.939Z,0.60
2023-05-06T12:16:06.019Z,0.80
2023-05-06T12:18:33.731Z,0.73
2023-05-06T12:21:04.170Z,0.70
2023-05-06T12:23:31.410Z,0.60
2023-05-06T12:26:06.106Z,0.57
2023-05-06T12:28:36.366Z,0.40
2023-05-06T12:31:20.323Z,0.40
2023-05-06T12:33:51.406Z,0.47
2023-05-06T12:36:22.136Z,0.60
2023-05-06T12:38:54.373Z,0.60
2023-05-06T12:41:25.864Z,0.50
2023-05-06T12:43:53.185Z,0.50
2023-05-06T12:46:20.426Z,0.50
2023-05-06T12:49:02.217Z,0.50
2023-05-06T12:51:31.187Z,0.43
2023-05-06T12:53:59.280Z,0.50
2023-05-06T12:56:26.452Z,0.40
2023-05-06T12:59:02.390Z,0.40
2023-05-06T13:01:29.629Z,0.30
2023-05-06T13:03:58.540Z,0.55
2023-05-06T13:06:25.770Z,0.50
2023-05-06T13:08:52.725Z,0.80
2023-05-06T13:11:21.657Z,0.60
2023-05-06T13:13:49.232Z,0.70
2023-05-06T13:16:17.589Z,0.50
2023-05-06T13:18:44.545Z,0.82
2023-05-06T13:21:13.175Z,1.00
2023-05-06T13:23:46.937Z,0.60
2023-05-06T13:26:15.012Z,0.68
2023-05-06T13:28:42.380Z,0.70
2023-05-06T13:31:10.576Z,0.50
2023-05-06T13:33:37.634Z,0.60
2023-05-06T13:36:06.149Z,0.50
2023-05-06T13:38:33.980Z,0.68
2023-05-06T13:41:01.409Z,0.40
2023-05-06T13:43:28.363Z,0.50
2023-05-06T13:45:55.708Z,0.60
2023-05-06T13:48:22.887Z,0.40
2023-05-06T13:50:50.385Z,0.40
2023-05-06T13:53:17.507Z,0.50
2023-05-06T13:55:44.736Z,0.70
2023-05-06T13:58:13.041Z,0.50
2023-05-06T14:00:40.212Z,0.90
2023-05-06T14:03:08.621Z,0.60
2023-05-06T14:05:36.134Z,0.60
2023-05-06T14:08:04.244Z,0.50
2023-05-06T14:10:31.162Z,0.30
2023-05-06T14:12:58.204Z,0.50
2023-05-06T14:15:25.593Z,0.32
2023-05-06T14:17:52.583Z,0.50
2023-05-06T14:20:19.730Z,0.43
2023-05-06T14:22:46.969Z,0.50
2023-05-06T14:25:14.196Z,0.50
2023-05-06T14:27:41.383Z,0.60
2023-05-06T14:30:09.857Z,0.50
2023-05-06T14:32:37.793Z,0.50
2023-05-06T14:35:05.757Z,0.50
2023-05-06T14:37:32.725Z,0.43
2023-05-06T14:40:00.318Z,0.50
2023-05-06T14:42:27.671Z,0.40
2023-05-06T14:44:55.041Z,0.40
2023-05-06T14:47:22.673Z,0.60
2023-05-06T14:49:50.125Z,0.50
2023-05-06T14:52:17.128Z,0.40
2023-05-06T14:54:45.085Z,0.40
2023-05-06T14:57:12.591Z,0.40
2023-05-06T14:59:39.961Z,0.30
2023-05-06T15:02:09.802Z,0.40
2023-05-06T15:04:37.346Z,0.40
2023-05-06T15:07:05.062Z,0.40
2023-05-06T15:09:32.138Z,0.30
2023-05-06T15:11:59.166Z,0.40
2023-05-06T15:14:26.849Z,0.30
2023-05-06T15:16:57.824Z,0.30
2023-05-06T15:19:25.129Z,0.40
2023-05-06T15:21:52.733Z,0.30
2023-05-06T15:24:19.714Z,1.02
2023-05-06T15:26:47.754Z,0.40
2023-05-06T15:29:14.907Z,0.30
2023-05-06T15:31:44.819Z,0.30
2023-05-06T15:34:12.624Z,0.25
2023-05-06T15:36:43.823Z,0.35
2023-05-06T15:39:11.187Z,0.20
2023-05-06T15:41:39.382Z,0.30
2023-05-06T15:44:06.655Z,0.30
2023-05-06T15:46:34.094Z,0.40
2023-05-06T15:51:32.267Z,0.30
2023-05-06T15:53:59.461Z,0.40
2023-05-06T15:56:27.282Z,0.40
2023-05-06T15:58:57.436Z,0.30
2023-05-06T16:01:47.943Z,0.47
2023-05-06T16:04:12.041Z,0.40
2023-05-06T16:06:39.228Z,0.32
2023-05-06T16:09:06.343Z,0.30
2023-05-06T16:11:33.542Z,0.30
2023-05-06T16:14:00.898Z,0.65
2023-05-06T16:16:28.012Z,0.40
2023-05-06T16:18:55.121Z,0.45
2023-05-06T16:21:22.301Z,0.40
2023-05-06T16:23:49.468Z,0.50
2023-05-06T16:26:17.114Z,0.30
2023-05-06T16:28:44.127Z,0.30
2023-05-06T16:31:11.201Z,0.50
2023-05-06T16:33:39.526Z,0.50
2023-05-06T16:36:07.890Z,0.40
2023-05-06T16:38:34.974Z,0.30
2023-05-06T16:41:02.082Z,0.38
2023-05-06T16:43:29.137Z,0.30
2023-05-06T16:45:56.283Z,0.40
2023-05-06T16:48:23.515Z,0.52
2023-05-06T16:50:50.730Z,0.60
2023-05-06T16:53:18.093Z,0.40
2023-05-06T16:55:49.940Z,0.45
2023-05-06T17:00:47.260Z,0.50
2023-05-06T17:03:17.289Z,0.70
2023-05-06T17:05:47.058Z,0.38
2023-05-06T17:08:16.061Z,0.32
2023-05-06T17:10:43.740Z,0.40
2023-05-06T17:13:10.928Z,0.35
2023-05-06T17:15:38.089Z,0.40
2023-05-06T17:18:05.546Z,0.40
2023-05-06T17:20:40.716Z,0.80
2023-05-06T17:23:15.058Z,0.70
2023-05-06T17:25:42.336Z,1.98
2023-05-06T17:28:09.156Z,1.10
2023-05-06T17:30:36.329Z,0.60
2023-05-06T17:33:03.324Z,0.80
2023-05-06T17:35:30.626Z,0.80
2023-05-06T17:37:58.034Z,0.90
2023-05-06T17:40:25.270Z,0.80
2023-05-06T17:42:52.384Z,0.88
2023-05-06T17:45:19.335Z,0.88
2023-05-06T17:47:46.473Z,1.10
2023-05-06T17:50:14.081Z,0.90
2023-05-06T17:52:41.181Z,1.02
2023-05-06T17:55:16.397Z,1.00
2023-05-06T17:57:44.268Z,0.90
2023-05-06T18:00:12.871Z,0.95
2023-05-06T18:02:41.499Z,0.88
2023-05-06T18:05:11.696Z,0.88
2023-05-06T18:07:39.161Z,0.90
2023-05-06T18:10:07.592Z,0.98
2023-05-06T18:12:35.196Z,1.48
2023-05-06T18:15:02.318Z,1.00
2023-05-06T18:17:29.730Z,1.10
2023-05-06T18:19:56.882Z,1.00
2023-05-06T18:22:24.096Z,1.00
2023-05-06T18:24:55.620Z,0.85
2023-05-06T18:27:23.119Z,1.00
2023-05-06T18:29:50.595Z,0.98
2023-05-06T18:32:18.587Z,0.90
2023-05-06T18:34:46.019Z,1.10
2023-05-06T18:37:13.168Z,1.10
2023-05-06T18:39:45.504Z,1.20
2023-05-06T18:42:13.058Z,0.88
2023-05-06T18:44:40.041Z,1.02
2023-05-06T18:47:07.298Z,1.05
2023-05-06T18:49:35.819Z,1.05
2023-05-06T18:52:03.103Z,1.10
2023-05-06T18:54:29.983Z,1.10
2023-05-06T18:56:58.869Z,1.30
2023-05-06T18:59:26.507Z,1.10
2023-05-06T19:01:53.581Z,1.02
2023-05-06T19:04:20.891Z,1.20
2023-05-06T19:06:48.026Z,1.10
2023-05-06T19:09:15.108Z,1.15
2023-05-06T19:11:42.207Z,1.05
2023-05-06T19:14:09.355Z,1.10
2023-05-06T19:16:36.879Z,1.30
2023-05-06T19:19:07.010Z,1.10
2023-05-06T19:21:35.712Z,1.10
2023-05-06T19:24:02.972Z,1.13
2023-05-06T19:26:29.998Z,1.20
2023-05-06T19:28:57.155Z,1.23
2023-05-06T19:31:24.175Z,1.13
2023-05-06T19:33:51.139Z,1.23
2023-05-06T19:36:18.527Z,1.20
2023-05-06T19:38:45.798Z,1.15
2023-05-06T19:41:15.573Z,1.30
2023-05-06T19:43:44.100Z,1.10
2023-05-06T19:46:12.086Z,1.20
2023-05-06T19:48:39.754Z,1.30
2023-05-06T19:51:06.826Z,1.33
2023-05-06T19:53:34.488Z,1.35
2023-05-06T19:56:13.235Z,1.08
2023-05-06T19:58:41.569Z,1.20
2023-05-06T20:01:09.031Z,1.30
2023-05-06T20:03:36.458Z,1.30
2023-05-06T20:06:04.189Z,1.10
2023-05-06T20:08:32.690Z,1.25
2023-05-06T20:11:00.812Z,1.02
2023-05-06T20:13:27.857Z,1.20
2023-05-06T20:15:55.316Z,1.33
2023-05-06T20:18:22.815Z,1.35
2023-05-06T20:20:49.746Z,1.70
2023-05-06T20:23:17.200Z,1.30
2023-05-06T20:25:44.216Z,1.10
2023-05-06T20:28:11.331Z,1.30
2023-05-06T20:30:38.960Z,1.30
2023-05-06T20:33:06.151Z,1.45
2023-05-06T20:35:38.288Z,1.60
2023-05-06T20:38:06.735Z,1.30
2023-05-06T20:40:35.911Z,1.30
2023-05-06T20:43:03.433Z,1.20
2023-05-06T20:45:31.583Z,1.35
2023-05-06T20:47:59.015Z,1.30
2023-05-06T20:50:26.205Z,1.50
2023-05-06T20:52:54.587Z,1.08
2023-05-06T20:55:23.662Z,1.30
2023-05-06T20:57:51.211Z,1.02
2023-05-06T21:00:20.954Z,1.38
2023-05-06T21:02:48.069Z,1.02
2023-05-06T21:05:15.945Z,1.40
2023-05-06T21:07:43.396Z,1.30
2023-05-06T21:10:11.871Z,1.17
2023-05-06T21:12:39.259Z,1.25
2023-05-06T21:15:07.181Z,1.35
2023-05-06T21:17:34.289Z,1.25
2023-05-06T21:20:02.051Z,1.08
2023-05-06T21:22:30.814Z,1.17
2023-05-06T21:24:58.068Z,1.50
2023-05-06T21:27:25.038Z,1.13
2023-05-06T21:29:52.170Z,1.50
2023-05-06T21:32:19.388Z,1.25
2023-05-06T21:34:46.871Z,0.98
2023-05-06T21:37:13.828Z,1.20
2023-05-06T21:39:40.780Z,1.20
2023-05-06T21:42:07.849Z,1.05
2023-05-06T21:44:34.795Z,1.23
2023-05-06T21:47:01.800Z,1.40
2023-05-06T21:49:28.941Z,1.42
2023-05-06T21:51:56.616Z,1.00
2023-05-06T21:54:24.794Z,0.88
2023-05-06T21:56:51.714Z,1.02
2023-05-06T21:59:19.856Z,0.88
2023-05-06T22:01:47.162Z,1.20
2023-05-06T22:04:16.859Z,1.00
2023-05-06T22:06:44.973Z,1.05
2023-05-06T22:09:15.418Z,1.10
2023-05-06T22:11:42.435Z,1.20
2023-05-06T22:14:09.514Z,1.05
2023-05-06T22:16:39.301Z,1.00
2023-05-06T22:19:06.772Z,0.88
2023-05-06T22:21:35.370Z,0.80
2023-05-06T22:24:02.387Z,1.00
2023-05-06T22:26:29.633Z,1.05
2023-05-06T22:28:58.276Z,1.05
2023-05-06T22:31:26.052Z,1.27
2023-05-06T22:33:58.325Z,1.27
2023-05-06T22:36:29.003Z,1.17
2023-05-06T22:38:56.409Z,1.40
2023-05-06T22:41:23.983Z,1.45
2023-05-06T22:43:50.948Z,1.38
2023-05-06T22:46:18.489Z,1.00
2023-05-06T22:48:46.649Z,1.35
2023-05-06T22:51:18.475Z,1.20
2023-05-06T22:53:45.766Z,1.08
2023-05-06T22:56:13.176Z,1.00
2023-05-06T22:58:40.229Z,1.00
2023-05-06T23:01:07.759Z,1.17
2023-05-06T23:03:36.021Z,1.00
2023-05-06T23:06:04.575Z,1.00
2023-05-06T23:08:31.608Z,1.40
2023-05-06T23:10:58.942Z,1.10
2023-05-06T23:13:26.874Z,1.13
2023-05-06T23:15:54.634Z,1.33
2023-05-06T23:18:22.060Z,1.02
2023-05-06T23:20:49.322Z,1.20
2023-05-06T23:23:16.794Z,1.10
2023-05-06T23:25:45.060Z,1.30
2023-05-06T23:28:12.060Z,1.10
2023-05-06T23:30:39.562Z,1.55
2023-05-06T23:33:07.854Z,1.30
2023-05-06T23:35:36.151Z,1.13
2023-05-06T23:38:03.066Z,1.30
2023-05-06T23:40:31.333Z,1.30
2023-05-06T23:42:58.663Z,1.13
2023-05-06T23:45:27.056Z,1.38
2023-05-06T23:47:54.689Z,1.30
2023-05-06T23:50:21.776Z,1.27
2023-05-06T23:52:48.623Z,1.20
2023-05-06T23:55:15.902Z,1.40
2023-05-06T23:57:42.984Z,1.00
